LFPO/ORY METAR and TAF weather

Enter ICAO airport designator
Station Type Date Time Source
LFPO METAR 2021/05/11 01:00 UTC NOAA

LFPO 110100Z 22004KT CAVOK 11/09 Q1008 NOSIG


Station Type Date Time Source
LFPO Decoded METAR 2021/05/11 01:00 UTC NOAA

Paris-Orly, France (LFPO) 48-44N 002-24E 96M
May 10, 2021 - 09:00 PM EDT / 2021.05.11 0100 UTC
Wind: from the SW (220 degrees) at 5 MPH (4 KT):0
Visibility: greater than 7 mile(s):0
Temperature: 51 F (11 C)
Dew Point: 48 F (9 C)
Relative Humidity: 87%
Pressure (altimeter): 29.77 in. Hg (1008 hPa)
ob: LFPO 110100Z 22004KT CAVOK 11/09 Q1008 NOSIG
cycle: 1

Station Type Date Time Source
LFPO TAF 2021/05/10 18:21 UTC NOAA

TAF LFPO 101700Z 1018/1124 20012KT CAVOK
TEMPO 1018/1019 20015G25KT 4000 SHRA SCT040CB PROB40
TEMPO 1018/1019 2500 -TSRA BKN040CB
BECMG 1019/1021 17005KT
BECMG 1105/1107 20010KT
TEMPO 1108/1112 -RA PROB40
TEMPO 1112/1116 4000 -SHRA SCT040CB

Example: see airport list